CheckWX is a tool to help pilots better visualize weather data.  It is not intended as a substitute for an official pre-flight weather briefing.

05:57:16 UTC

KONL METAR
The O'neill Municipal-John L Baker Field Airport
O'neill, Nebraska, USA
Current

22 mins ago

KONL 200535Z AUTO 00000KT 1 1/2SM -SN OVC013 M09/M10 A2993 RMK AO2 T10871101
Observed
Feb-20 @ 05:35 UTC
Visibility
2,414 meters
Flight Rules
IFR
Conditions
Light Snow
Cloud Levels
  • Overcast at 1,300' AGL
Temperature
-9°C / 16°F
Dewpoint
-10°C / 14°F
Humidity
93%
Altimeter
29.93" Hg
Pressure
1013.52 hPa
Previous

42 mins ago

KONL 200515Z AUTO 14003KT 1 1/2SM -SN OVC013 M09/M10 A2995 RMK AO2 T10861100
Observed
Feb-20 @ 05:15 UTC
Wind
  • 140° at 3 KTS
Visibility
2,414 meters
Flight Rules
IFR
Conditions
Light Snow
Cloud Levels
  • Overcast at 1,300' AGL
Temperature
-9°C / 16°F
Dewpoint
-10°C / 14°F
Humidity
93%
Altimeter
29.95" Hg
Pressure
1014.22 hPa
Previous

1 hour ago

KONL 200455Z AUTO 15003KT 1 1/4SM SN BKN010 OVC013 M08/M10 A2996 RMK AO2 P0002 T10851100
Observed
Feb-20 @ 04:55 UTC
Wind
  • 150° at 3 KTS
Visibility
2,012 meters
Flight Rules
IFR
Conditions
Snow
Cloud Levels
  • Broken at 1,000' AGL
  • Overcast at 1,300' AGL
Temperature
-9°C / 16°F
Dewpoint
-10°C / 14°F
Humidity
93%
Altimeter
29.96" Hg
Pressure
1014.52 hPa
Current Rain
0.02"